Las Vegas, Nevada
Traffic Map
Current Weather Conditions
Las Vegas, Nevada
Clear
Clear
92°
Feels Like: 92°
Wind Chill: 92° Ceiling: Unl
Heat Index: 92° Visibility: 10mi
Dew Point: 17° Wind: 5mph
Humidity: 6% Direction: 280° (W)
Pressure: 29.85in Gusts: 0mph
Raw Report DataKLAS 271556Z 28004KT 10SM CLR 33/M08 A2985 RMK AO2 SLP074 T03331083
Traffic Incident Summary
Active as of:
Severity:
Category:
InformationThere was an issue retrieving the traffic information for this location. Please try a different location or try again shortly.
Advertisements
Track Severe Weather on mobile